sensor_id;sensor_type;location;lat;lon;timestamp;P1;durP1;ratioP1;P2;durP2;ratioP2
23722;SDS011;12042;52.136;5.584;2023-02-28T06:43:30;10.90;;;7.93;;
23722;SDS011;12042;52.136;5.584;2023-02-28T06:45:58;9.32;;;6.47;;
23722;SDS011;12042;52.136;5.584;2023-02-28T06:48:25;6.07;;;5.25;;
23722;SDS011;12042;52.136;5.584;2023-02-28T06:50:51;6.72;;;5.75;;
23722;SDS011;12042;52.136;5.584;2023-02-28T06:53:18;6.68;;;5.03;;
23722;SDS011;12042;52.136;5.584;2023-02-28T06:55:43;8.27;;;5.00;;
23722;SDS011;12042;52.136;5.584;2023-02-28T06:58:09;6.10;;;4.40;;
23722;SDS011;12042;52.136;5.584;2023-02-28T07:00:44;4.80;;;4.20;;
23722;SDS011;12042;52.136;5.584;2023-02-28T07:03:11;6.75;;;4.15;;
23722;SDS011;12042;52.136;5.584;2023-02-28T07:05:37;6.50;;;4.28;;
23722;SDS011;12042;52.136;5.584;2023-02-28T07:08:04;5.97;;;4.28;;
23722;SDS011;12042;52.136;5.584;2023-02-28T07:10:31;4.93;;;4.43;;
23722;SDS011;12042;52.136;5.584;2023-02-28T07:12:59;6.20;;;5.00;;
23722;SDS011;12042;52.136;5.584;2023-02-28T07:15:25;6.45;;;4.82;;
23722;SDS011;12042;52.136;5.584;2023-02-28T07:17:51;5.18;;;4.35;;
23722;SDS011;12042;52.136;5.584;2023-02-28T07:20:16;5.00;;;4.43;;
23722;SDS011;12042;52.136;5.584;2023-02-28T07:22:42;4.47;;;4.07;;
23722;SDS011;12042;52.136;5.584;2023-02-28T07:25:08;5.72;;;4.38;;
23722;SDS011;12042;52.136;5.584;2023-02-28T07:27:34;8.07;;;4.88;;
23722;SDS011;12042;52.136;5.584;2023-02-28T07:29:59;4.57;;;4.28;;
23722;SDS011;12042;52.136;5.584;2023-02-28T07:32:26;5.88;;;4.30;;
23722;SDS011;12042;52.136;5.584;2023-02-28T07:34:53;5.68;;;4.60;;
23722;SDS011;12042;52.136;5.584;2023-02-28T07:37:19;6.22;;;4.82;;
23722;SDS011;12042;52.136;5.584;2023-02-28T07:39:45;9.57;;;5.28;;
23722;SDS011;12042;52.136;5.584;2023-02-28T07:42:10;17.52;;;8.98;;
23722;SDS011;12042;52.136;5.584;2023-02-28T07:44:37;24.05;;;13.45;;
23722;SDS011;12042;52.136;5.584;2023-02-28T07:47:06;28.77;;;14.05;;
23722;SDS011;12042;52.136;5.584;2023-02-28T07:49:32;26.00;;;13.55;;
23722;SDS011;12042;52.136;5.584;2023-02-28T07:51:59;15.95;;;10.07;;
23722;SDS011;12042;52.136;5.584;2023-02-28T07:54:24;11.77;;;7.18;;
23722;SDS011;12042;52.136;5.584;2023-02-28T07:56:50;8.15;;;6.75;;
23722;SDS011;12042;52.136;5.584;2023-02-28T07:59:16;8.18;;;5.95;;
23722;SDS011;12042;52.136;5.584;2023-02-28T08:01:41;11.88;;;5.70;;
23722;SDS011;12042;52.136;5.584;2023-02-28T08:04:09;8.68;;;4.85;;
23722;SDS011;12042;52.136;5.584;2023-02-28T08:06:35;6.10;;;5.30;;
23722;SDS011;12042;52.136;5.584;2023-02-28T08:09:00;5.05;;;4.63;;
23722;SDS011;12042;52.136;5.584;2023-02-28T08:11:26;7.35;;;4.60;;
23722;SDS011;12042;52.136;5.584;2023-02-28T08:13:51;8.13;;;5.10;;
23722;SDS011;12042;52.136;5.584;2023-02-28T08:16:17;7.88;;;5.20;;
23722;SDS011;12042;52.136;5.584;2023-02-28T08:18:47;8.38;;;6.10;;
23722;SDS011;12042;52.136;5.584;2023-02-28T08:21:14;9.68;;;5.63;;
23722;SDS011;12042;52.136;5.584;2023-02-28T08:23:40;8.65;;;4.35;;
23722;SDS011;12042;52.136;5.584;2023-02-28T08:26:05;4.53;;;4.13;;
23722;SDS011;12042;52.136;5.584;2023-02-28T08:28:31;4.97;;;4.22;;
23722;SDS011;12042;52.136;5.584;2023-02-28T08:30:57;4.50;;;4.10;;
23722;SDS011;12042;52.136;5.584;2023-02-28T08:33:24;4.35;;;3.95;;
23722;SDS011;12042;52.136;5.584;2023-02-28T08:35:52;4.30;;;3.90;;
23722;SDS011;12042;52.136;5.584;2023-02-28T08:38:21;3.58;;;3.28;;
23722;SDS011;12042;52.136;5.584;2023-02-28T08:40:46;4.25;;;3.38;;
23722;SDS011;12042;52.136;5.584;2023-02-28T08:43:12;4.75;;;3.47;;
23722;SDS011;12042;52.136;5.584;2023-02-28T08:45:37;3.13;;;2.92;;
23722;SDS011;12042;52.136;5.584;2023-02-28T08:48:03;4.82;;;3.60;;
23722;SDS011;12042;52.136;5.584;2023-02-28T08:50:29;6.90;;;3.08;;
23722;SDS011;12042;52.136;5.584;2023-02-28T08:52:54;3.50;;;3.20;;
23722;SDS011;12042;52.136;5.584;2023-02-28T08:55:20;3.70;;;2.42;;
23722;SDS011;12042;52.136;5.584;2023-02-28T08:57:45;2.30;;;2.10;;
23722;SDS011;12042;52.136;5.584;2023-02-28T09:00:11;2.40;;;2.20;;
23722;SDS011;12042;52.136;5.584;2023-02-28T09:02:38;1.67;;;1.35;;
23722;SDS011;12042;52.136;5.584;2023-02-28T09:05:05;1.90;;;1.80;;
23722;SDS011;12042;52.136;5.584;2023-02-28T09:07:33;3.58;;;1.90;;
23722;SDS011;12042;52.136;5.584;2023-02-28T09:09:58;4.07;;;2.40;;
23722;SDS011;12042;52.136;5.584;2023-02-28T09:12:25;3.30;;;2.33;;
23722;SDS011;12042;52.136;5.584;2023-02-28T09:14:56;1.15;;;1.15;;
23722;SDS011;12042;52.136;5.584;2023-02-28T09:17:22;1.60;;;1.50;;
23722;SDS011;12042;52.136;5.584;2023-02-28T09:19:48;2.80;;;1.70;;
23722;SDS011;12042;52.136;5.584;2023-02-28T09:22:14;2.75;;;2.42;;
23722;SDS011;12042;52.136;5.584;2023-02-28T09:24:40;2.03;;;1.52;;
23722;SDS011;12042;52.136;5.584;2023-02-28T09:27:06;3.38;;;2.60;;
23722;SDS011;12042;52.136;5.584;2023-02-28T09:29:33;2.00;;;1.90;;
23722;SDS011;12042;52.136;5.584;2023-02-28T09:31:59;2.92;;;2.65;;
23722;SDS011;12042;52.136;5.584;2023-02-28T09:34:26;2.60;;;2.40;;
23722;SDS011;12042;52.136;5.584;2023-02-28T09:36:52;2.00;;;1.90;;
23722;SDS011;12042;52.136;5.584;2023-02-28T09:39:20;1.70;;;1.60;;
23722;SDS011;12042;52.136;5.584;2023-02-28T09:41:49;1.58;;;1.48;;
23722;SDS011;12042;52.136;5.584;2023-02-28T09:44:28;2.70;;;2.15;;
23722;SDS011;12042;52.136;5.584;2023-02-28T09:47:18;1.98;;;1.88;;
23722;SDS011;12042;52.136;5.584;2023-02-28T09:53:24;2.55;;;1.90;;
23722;SDS011;12042;52.136;5.584;2023-02-28T09:55:55;1.92;;;1.80;;
23722;SDS011;12042;52.136;5.584;2023-02-28T09:58:44;1.55;;;1.20;;
23722;SDS011;12042;52.136;5.584;2023-02-28T10:01:17;1.70;;;1.60;;
23722;SDS011;12042;52.136;5.584;2023-02-28T10:03:55;2.35;;;1.55;;
23722;SDS011;12042;52.136;5.584;2023-02-28T10:06:32;1.52;;;1.42;;
23722;SDS011;12042;52.136;5.584;2023-02-28T10:09:26;1.50;;;1.40;;
23722;SDS011;12042;52.136;5.584;2023-02-28T10:11:56;1.58;;;1.45;;
23722;SDS011;12042;52.136;5.584;2023-02-28T10:14:28;1.75;;;1.65;;
23722;SDS011;12042;52.136;5.584;2023-02-28T10:17:04;1.60;;;1.50;;
23722;SDS011;12042;52.136;5.584;2023-02-28T10:22:25;1.40;;;1.30;;
23722;SDS011;12042;52.136;5.584;2023-02-28T10:24:56;1.73;;;1.50;;
23722;SDS011;12042;52.136;5.584;2023-02-28T10:27:31;1.45;;;1.35;;
23722;SDS011;12042;52.136;5.584;2023-02-28T10:29:58;2.92;;;1.55;;
23722;SDS011;12042;52.136;5.584;2023-02-28T10:37:39;1.50;;;1.38;;
23722;SDS011;12042;52.136;5.584;2023-02-28T10:40:06;4.20;;;1.30;;
23722;SDS011;12042;52.136;5.584;2023-02-28T10:43:01;1.73;;;1.60;;
23722;SDS011;12042;52.136;5.584;2023-02-28T10:45:29;1.58;;;1.48;;
23722;SDS011;12042;52.136;5.584;2023-02-28T10:48:05;1.80;;;1.50;;
23722;SDS011;12042;52.136;5.584;2023-02-28T10:50:52;1.77;;;1.67;;
23722;SDS011;12042;52.136;5.584;2023-02-28T10:58:31;1.80;;;1.70;;
23722;SDS011;12042;52.136;5.584;2023-02-28T11:01:17;1.55;;;1.45;;
23722;SDS011;12042;52.136;5.584;2023-02-28T11:03:47;1.52;;;1.42;;
23722;SDS011;12042;52.136;5.584;2023-02-28T11:06:34;1.52;;;1.42;;
23722;SDS011;12042;52.136;5.584;2023-02-28T11:09:01;1.55;;;1.45;;
23722;SDS011;12042;52.136;5.584;2023-02-28T11:11:31;3.08;;;1.63;;
23722;SDS011;12042;52.136;5.584;2023-02-28T11:14:15;1.58;;;1.45;;
23722;SDS011;12042;52.136;5.584;2023-02-28T11:16:51;1.67;;;1.45;;
23722;SDS011;12042;52.136;5.584;2023-02-28T11:19:28;1.70;;;1.60;;
23722;SDS011;12042;52.136;5.584;2023-02-28T11:22:00;1.60;;;1.50;;
23722;SDS011;12042;52.136;5.584;2023-02-28T11:24:34;2.00;;;1.90;;
23722;SDS011;12042;52.136;5.584;2023-02-28T11:27:05;1.50;;;1.40;;
23722;SDS011;12042;52.136;5.584;2023-02-28T11:29:31;1.40;;;1.30;;
23722;SDS011;12042;52.136;5.584;2023-02-28T11:32:04;1.80;;;1.60;;
23722;SDS011;12042;52.136;5.584;2023-02-28T11:34:35;3.17;;;1.50;;
23722;SDS011;12042;52.136;5.584;2023-02-28T11:37:03;1.42;;;1.33;;
23722;SDS011;12042;52.136;5.584;2023-02-28T11:39:31;1.60;;;1.50;;
23722;SDS011;12042;52.136;5.584;2023-02-28T11:45:11;1.48;;;1.30;;
23722;SDS011;12042;52.136;5.584;2023-02-28T11:47:39;3.75;;;1.60;;
23722;SDS011;12042;52.136;5.584;2023-02-28T11:53:00;1.33;;;1.20;;
23722;SDS011;12042;52.136;5.584;2023-02-28T11:58:23;1.48;;;1.38;;
23722;SDS011;12042;52.136;5.584;2023-02-28T12:06:44;2.25;;;1.48;;
23722;SDS011;12042;52.136;5.584;2023-02-28T12:09:24;1.90;;;1.80;;
23722;SDS011;12042;52.136;5.584;2023-02-28T12:17:28;1.73;;;1.63;;
23722;SDS011;12042;52.136;5.584;2023-02-28T12:22:59;2.08;;;1.55;;
23722;SDS011;12042;52.136;5.584;2023-02-28T12:28:20;1.75;;;1.65;;
23722;SDS011;12042;52.136;5.584;2023-02-28T12:30:56;2.22;;;2.03;;
23722;SDS011;12042;52.136;5.584;2023-02-28T12:33:29;2.10;;;1.92;;
23722;SDS011;12042;52.136;5.584;2023-02-28T12:36:00;1.60;;;1.50;;
23722;SDS011;12042;52.136;5.584;2023-02-28T12:38:36;1.77;;;1.67;;
23722;SDS011;12042;52.136;5.584;2023-02-28T12:41:11;2.50;;;2.00;;
23722;SDS011;12042;52.136;5.584;2023-02-28T12:43:42;2.05;;;1.95;;
23722;SDS011;12042;52.136;5.584;2023-02-28T12:46:21;1.92;;;1.52;;
23722;SDS011;12042;52.136;5.584;2023-02-28T12:48:53;1.95;;;1.80;;
23722;SDS011;12042;52.136;5.584;2023-02-28T12:51:21;2.95;;;1.70;;
23722;SDS011;12042;52.136;5.584;2023-02-28T12:56:49;1.85;;;1.75;;
23722;SDS011;12042;52.136;5.584;2023-02-28T13:04:41;2.70;;;2.10;;
23722;SDS011;12042;52.136;5.584;2023-02-28T13:10:15;2.45;;;2.00;;
23722;SDS011;12042;52.136;5.584;2023-02-28T13:12:50;2.15;;;2.05;;
23722;SDS011;12042;52.136;5.584;2023-02-28T13:17:48;2.22;;;2.13;;
23722;SDS011;12042;52.136;5.584;2023-02-28T13:20:20;2.10;;;2.00;;
23722;SDS011;12042;52.136;5.584;2023-02-28T13:22:49;2.25;;;2.05;;
23722;SDS011;12042;52.136;5.584;2023-02-28T13:27:58;1.90;;;1.80;;
23722;SDS011;12042;52.136;5.584;2023-02-28T13:46:36;2.33;;;2.13;;
23722;SDS011;12042;52.136;5.584;2023-02-28T13:49:18;2.30;;;2.20;;
23722;SDS011;12042;52.136;5.584;2023-02-28T13:51:53;2.70;;;2.45;;
23722;SDS011;12042;52.136;5.584;2023-02-28T13:57:49;2.85;;;2.47;;
23722;SDS011;12042;52.136;5.584;2023-02-28T14:00:41;2.83;;;2.30;;
23722;SDS011;12042;52.136;5.584;2023-02-28T14:06:32;2.30;;;2.20;;
23722;SDS011;12042;52.136;5.584;2023-02-28T14:11:37;2.40;;;2.20;;
23722;SDS011;12042;52.136;5.584;2023-02-28T14:14:05;1.90;;;1.80;;
23722;SDS011;12042;52.136;5.584;2023-02-28T14:16:44;1.92;;;1.73;;
23722;SDS011;12042;52.136;5.584;2023-02-28T14:19:15;1.70;;;1.60;;
23722;SDS011;12042;52.136;5.584;2023-02-28T14:24:42;3.38;;;1.98;;
23722;SDS011;12042;52.136;5.584;2023-02-28T14:27:32;2.20;;;2.00;;
23722;SDS011;12042;52.136;5.584;2023-02-28T14:32:45;2.20;;;2.10;;
23722;SDS011;12042;52.136;5.584;2023-02-28T14:37:53;1.98;;;1.88;;
23722;SDS011;12042;52.136;5.584;2023-02-28T14:40:27;2.65;;;2.45;;
23722;SDS011;12042;52.136;5.584;2023-02-28T14:42:57;2.35;;;2.25;;
23722;SDS011;12042;52.136;5.584;2023-02-28T14:45:26;2.67;;;2.10;;
23722;SDS011;12042;52.136;5.584;2023-02-28T14:47:57;1.88;;;1.77;;
23722;SDS011;12042;52.136;5.584;2023-02-28T14:50:25;2.03;;;1.92;;
23722;SDS011;12042;52.136;5.584;2023-02-28T14:52:59;4.65;;;3.80;;
23722;SDS011;12042;52.136;5.584;2023-02-28T14:55:26;3.10;;;2.42;;
23722;SDS011;12042;52.136;5.584;2023-02-28T14:57:56;2.47;;;1.80;;
23722;SDS011;12042;52.136;5.584;2023-02-28T15:00:25;2.03;;;1.92;;
23722;SDS011;12042;52.136;5.584;2023-02-28T15:02:53;2.10;;;2.00;;
23722;SDS011;12042;52.136;5.584;2023-02-28T15:08:03;2.08;;;1.98;;
23722;SDS011;12042;52.136;5.584;2023-02-28T15:10:41;1.98;;;1.88;;
23722;SDS011;12042;52.136;5.584;2023-02-28T15:13:13;2.05;;;1.92;;
23722;SDS011;12042;52.136;5.584;2023-02-28T15:23:57;2.13;;;2.00;;
23722;SDS011;12042;52.136;5.584;2023-02-28T15:26:49;2.83;;;2.00;;
23722;SDS011;12042;52.136;5.584;2023-02-28T15:29:20;2.75;;;1.70;;
23722;SDS011;12042;52.136;5.584;2023-02-28T15:32:00;2.00;;;1.90;;
23722;SDS011;12042;52.136;5.584;2023-02-28T15:34:35;1.80;;;1.70;;
23722;SDS011;12042;52.136;5.584;2023-02-28T15:37:23;1.48;;;1.38;;
23722;SDS011;12042;52.136;5.584;2023-02-28T15:40:12;1.60;;;1.50;;
23722;SDS011;12042;52.136;5.584;2023-02-28T15:42:38;1.70;;;1.60;;
23722;SDS011;12042;52.136;5.584;2023-02-28T15:45:04;1.60;;;1.50;;
23722;SDS011;12042;52.136;5.584;2023-02-28T15:47:30;2.03;;;1.83;;
23722;SDS011;12042;52.136;5.584;2023-02-28T15:50:00;1.58;;;1.48;;
23722;SDS011;12042;52.136;5.584;2023-02-28T15:52:30;1.80;;;1.70;;
23722;SDS011;12042;52.136;5.584;2023-02-28T15:57:51;1.80;;;1.70;;
23722;SDS011;12042;52.136;5.584;2023-02-28T16:00:22;1.95;;;1.85;;
23722;SDS011;12042;52.136;5.584;2023-02-28T16:02:49;2.20;;;2.00;;
23722;SDS011;12042;52.136;5.584;2023-02-28T16:07:52;2.15;;;2.05;;
23722;SDS011;12042;52.136;5.584;2023-02-28T16:10:20;2.47;;;1.95;;
23722;SDS011;12042;52.136;5.584;2023-02-28T16:12:48;2.15;;;2.05;;
23722;SDS011;12042;52.136;5.584;2023-02-28T16:17:46;5.38;;;1.83;;
23722;SDS011;12042;52.136;5.584;2023-02-28T16:20:33;2.85;;;1.77;;
23722;SDS011;12042;52.136;5.584;2023-02-28T16:22:58;7.35;;;2.83;;
23722;SDS011;12042;52.136;5.584;2023-02-28T16:25:33;1.98;;;1.88;;
23722;SDS011;12042;52.136;5.584;2023-02-28T16:28:01;6.45;;;2.17;;
23722;SDS011;12042;52.136;5.584;2023-02-28T16:30:28;2.10;;;2.00;;
23722;SDS011;12042;52.136;5.584;2023-02-28T16:32:56;1.90;;;1.80;;
23722;SDS011;12042;52.136;5.584;2023-02-28T16:35:22;3.97;;;2.10;;
23722;SDS011;12042;52.136;5.584;2023-02-28T16:37:50;3.38;;;2.00;;
23722;SDS011;12042;52.136;5.584;2023-02-28T16:40:20;3.13;;;2.50;;
23722;SDS011;12042;52.136;5.584;2023-02-28T16:42:52;2.20;;;2.10;;
23722;SDS011;12042;52.136;5.584;2023-02-28T16:45:22;3.53;;;2.53;;
23722;SDS011;12042;52.136;5.584;2023-02-28T16:47:50;2.40;;;2.30;;
23722;SDS011;12042;52.136;5.584;2023-02-28T16:52:51;2.88;;;2.40;;
23722;SDS011;12042;52.136;5.584;2023-02-28T16:55:17;3.75;;;2.20;;
23722;SDS011;12042;52.136;5.584;2023-02-28T16:57:44;3.60;;;2.15;;
23722;SDS011;12042;52.136;5.584;2023-02-28T17:00:31;2.50;;;2.30;;
23722;SDS011;12042;52.136;5.584;2023-02-28T17:02:57;3.22;;;2.53;;
23722;SDS011;12042;52.136;5.584;2023-02-28T17:05:36;5.20;;;2.72;;
23722;SDS011;12042;52.136;5.584;2023-02-28T17:08:04;3.05;;;2.75;;
23722;SDS011;12042;52.136;5.584;2023-02-28T17:10:30;4.57;;;3.08;;
23722;SDS011;12042;52.136;5.584;2023-02-28T17:12:56;3.92;;;3.00;;
23722;SDS011;12042;52.136;5.584;2023-02-28T17:15:21;4.22;;;3.15;;
23722;SDS011;12042;52.136;5.584;2023-02-28T17:17:47;3.67;;;2.80;;
23722;SDS011;12042;52.136;5.584;2023-02-28T17:20:21;4.15;;;2.95;;
23722;SDS011;12042;52.136;5.584;2023-02-28T17:22:47;6.75;;;2.92;;
23722;SDS011;12042;52.136;5.584;2023-02-28T17:25:14;4.47;;;2.92;;
23722;SDS011;12042;52.136;5.584;2023-02-28T17:27:39;3.15;;;2.65;;
23722;SDS011;12042;52.136;5.584;2023-02-28T17:32:45;3.70;;;3.00;;
23722;SDS011;12042;52.136;5.584;2023-02-28T17:35:11;3.25;;;3.05;;
23722;SDS011;12042;52.136;5.584;2023-02-28T17:37:38;5.72;;;2.50;;
23722;SDS011;12042;52.136;5.584;2023-02-28T17:40:04;3.00;;;2.80;;
23722;SDS011;12042;52.136;5.584;2023-02-28T17:42:30;4.68;;;3.00;;
23722;SDS011;12042;52.136;5.584;2023-02-28T17:44:56;3.30;;;3.00;;
23722;SDS011;12042;52.136;5.584;2023-02-28T17:47:22;5.53;;;3.33;;
23722;SDS011;12042;52.136;5.584;2023-02-28T17:49:47;3.38;;;3.10;;
23722;SDS011;12042;52.136;5.584;2023-02-28T17:52:13;3.70;;;3.40;;
23722;SDS011;12042;52.136;5.584;2023-02-28T17:54:38;9.93;;;6.63;;
23722;SDS011;12042;52.136;5.584;2023-02-28T17:57:04;7.00;;;6.30;;
23722;SDS011;12042;52.136;5.584;2023-02-28T17:59:30;5.20;;;4.80;;
23722;SDS011;12042;52.136;5.584;2023-02-28T18:01:59;4.32;;;3.92;;
23722;SDS011;12042;52.136;5.584;2023-02-28T18:04:25;5.40;;;4.82;;
23722;SDS011;12042;52.136;5.584;2023-02-28T18:06:52;6.78;;;5.70;;
23722;SDS011;12042;52.136;5.584;2023-02-28T18:09:19;5.55;;;4.90;;
23722;SDS011;12042;52.136;5.584;2023-02-28T18:11:49;5.32;;;4.35;;
23722;SDS011;12042;52.136;5.584;2023-02-28T18:14:16;4.07;;;3.78;;
23722;SDS011;12042;52.136;5.584;2023-02-28T18:16:43;3.28;;;3.08;;
23722;SDS011;12042;52.136;5.584;2023-02-28T18:19:10;3.20;;;3.00;;
23722;SDS011;12042;52.136;5.584;2023-02-28T18:21:42;5.05;;;3.30;;
23722;SDS011;12042;52.136;5.584;2023-02-28T18:24:08;6.03;;;3.70;;
23722;SDS011;12042;52.136;5.584;2023-02-28T18:26:35;3.53;;;2.90;;
23722;SDS011;12042;52.136;5.584;2023-02-28T18:29:01;4.28;;;3.95;;
23722;SDS011;12042;52.136;5.584;2023-02-28T18:31:27;6.30;;;5.70;;
23722;SDS011;12042;52.136;5.584;2023-02-28T18:33:53;11.23;;;7.38;;
23722;SDS011;12042;52.136;5.584;2023-02-28T18:36:20;11.63;;;7.63;;
23722;SDS011;12042;52.136;5.584;2023-02-28T18:38:47;6.35;;;5.50;;
23722;SDS011;12042;52.136;5.584;2023-02-28T18:41:14;5.30;;;4.80;;
23722;SDS011;12042;52.136;5.584;2023-02-28T18:43:40;4.85;;;4.45;;
23722;SDS011;12042;52.136;5.584;2023-02-28T18:46:10;4.68;;;4.38;;
23722;SDS011;12042;52.136;5.584;2023-02-28T18:48:37;4.95;;;4.55;;
23722;SDS011;12042;52.136;5.584;2023-02-28T18:53:38;4.55;;;4.07;;
23722;SDS011;12042;52.136;5.584;2023-02-28T18:56:05;4.35;;;3.97;;
23722;SDS011;12042;52.136;5.584;2023-02-28T18:58:32;4.70;;;4.25;;
23722;SDS011;12042;52.136;5.584;2023-02-28T19:00:59;4.72;;;3.85;;
23722;SDS011;12042;52.136;5.584;2023-02-28T19:03:26;4.25;;;3.85;;
23722;SDS011;12042;52.136;5.584;2023-02-28T19:05:54;6.53;;;4.15;;
23722;SDS011;12042;52.136;5.584;2023-02-28T19:08:21;4.22;;;3.85;;
23722;SDS011;12042;52.136;5.584;2023-02-28T19:10:47;4.63;;;4.25;;
23722;SDS011;12042;52.136;5.584;2023-02-28T19:13:13;4.80;;;4.40;;
23722;SDS011;12042;52.136;5.584;2023-02-28T19:15:39;5.72;;;5.20;;
23722;SDS011;12042;52.136;5.584;2023-02-28T19:18:05;5.18;;;4.80;;
23722;SDS011;12042;52.136;5.584;2023-02-28T19:20:30;5.70;;;5.07;;
23722;SDS011;12042;52.136;5.584;2023-02-28T19:22:59;5.95;;;5.45;;
23722;SDS011;12042;52.136;5.584;2023-02-28T19:25:24;5.63;;;5.10;;
23722;SDS011;12042;52.136;5.584;2023-02-28T19:27:51;5.55;;;5.05;;
23722;SDS011;12042;52.136;5.584;2023-02-28T19:30:17;6.25;;;5.00;;
23722;SDS011;12042;52.136;5.584;2023-02-28T19:32:43;5.45;;;5.05;;
23722;SDS011;12042;52.136;5.584;2023-02-28T19:35:09;5.78;;;5.25;;
23722;SDS011;12042;52.136;5.584;2023-02-28T19:37:38;5.95;;;5.45;;
23722;SDS011;12042;52.136;5.584;2023-02-28T19:40:05;5.70;;;5.18;;
23722;SDS011;12042;52.136;5.584;2023-02-28T19:42:33;5.90;;;5.38;;
23722;SDS011;12042;52.136;5.584;2023-02-28T19:44:59;7.05;;;5.90;;
23722;SDS011;12042;52.136;5.584;2023-02-28T19:47:26;8.15;;;6.35;;
23722;SDS011;12042;52.136;5.584;2023-02-28T19:49:54;13.38;;;7.75;;
23722;SDS011;12042;52.136;5.584;2023-02-28T19:52:20;12.73;;;8.27;;
23722;SDS011;12042;52.136;5.584;2023-02-28T19:54:46;10.90;;;7.78;;
23722;SDS011;12042;52.136;5.584;2023-02-28T19:57:13;9.38;;;6.78;;
23722;SDS011;12042;52.136;5.584;2023-02-28T19:59:39;8.80;;;7.28;;
23722;SDS011;12042;52.136;5.584;2023-02-28T20:02:05;13.25;;;8.80;;
23722;SDS011;12042;52.136;5.584;2023-02-28T20:04:38;15.25;;;8.93;;
23722;SDS011;12042;52.136;5.584;2023-02-28T20:07:04;8.98;;;7.68;;
23722;SDS011;12042;52.136;5.584;2023-02-28T20:09:30;11.15;;;7.50;;
23722;SDS011;12042;52.136;5.584;2023-02-28T20:11:56;9.70;;;7.68;;
23722;SDS011;12042;52.136;5.584;2023-02-28T20:14:23;9.55;;;7.75;;
23722;SDS011;12042;52.136;5.584;2023-02-28T20:16:49;8.82;;;7.22;;
23722;SDS011;12042;52.136;5.584;2023-02-28T20:19:16;10.98;;;7.47;;
23722;SDS011;12042;52.136;5.584;2023-02-28T20:21:42;9.20;;;7.60;;
23722;SDS011;12042;52.136;5.584;2023-02-28T20:24:09;9.75;;;7.68;;
23722;SDS011;12042;52.136;5.584;2023-02-28T20:26:36;9.32;;;8.05;;
23722;SDS011;12042;52.136;5.584;2023-02-28T20:29:03;9.80;;;8.80;;
23722;SDS011;12042;52.136;5.584;2023-02-28T20:31:30;13.45;;;9.60;;
23722;SDS011;12042;52.136;5.584;2023-02-28T20:33:56;11.13;;;9.20;;
23722;SDS011;12042;52.136;5.584;2023-02-28T20:36:22;11.85;;;9.30;;
23722;SDS011;12042;52.136;5.584;2023-02-28T20:38:48;13.68;;;10.02;;
23722;SDS011;12042;52.136;5.584;2023-02-28T20:41:15;17.52;;;12.15;;
23722;SDS011;12042;52.136;5.584;2023-02-28T20:43:41;14.75;;;11.23;;
23722;SDS011;12042;52.136;5.584;2023-02-28T20:46:07;18.50;;;11.25;;
23722;SDS011;12042;52.136;5.584;2023-02-28T20:48:34;15.77;;;11.07;;
23722;SDS011;12042;52.136;5.584;2023-02-28T20:51:00;12.55;;;9.57;;
23722;SDS011;12042;52.136;5.584;2023-02-28T20:53:28;12.55;;;10.25;;
23722;SDS011;12042;52.136;5.584;2023-02-28T20:55:58;14.50;;;11.15;;
23722;SDS011;12042;52.136;5.584;2023-02-28T20:58:31;16.80;;;12.02;;
23722;SDS011;12042;52.136;5.584;2023-02-28T21:03:40;20.92;;;12.60;;
23722;SDS011;12042;52.136;5.584;2023-02-28T21:06:07;19.30;;;12.93;;
23722;SDS011;12042;52.136;5.584;2023-02-28T21:08:34;21.55;;;14.00;;
23722;SDS011;12042;52.136;5.584;2023-02-28T21:11:00;20.73;;;12.88;;
23722;SDS011;12042;52.136;5.584;2023-02-28T21:13:26;17.05;;;12.00;;
23722;SDS011;12042;52.136;5.584;2023-02-28T21:15:52;23.70;;;11.32;;
23722;SDS011;12042;52.136;5.584;2023-02-28T21:18:18;18.40;;;11.50;;
23722;SDS011;12042;52.136;5.584;2023-02-28T21:20:43;21.27;;;12.57;;
23722;SDS011;12042;52.136;5.584;2023-02-28T21:23:09;28.40;;;14.88;;
23722;SDS011;12042;52.136;5.584;2023-02-28T21:25:35;31.85;;;15.65;;
23722;SDS011;12042;52.136;5.584;2023-02-28T21:28:01;26.05;;;15.00;;
23722;SDS011;12042;52.136;5.584;2023-02-28T21:30:28;21.10;;;13.10;;
23722;SDS011;12042;52.136;5.584;2023-02-28T21:32:54;21.50;;;12.73;;
23722;SDS011;12042;52.136;5.584;2023-02-28T21:35:21;14.68;;;10.98;;
23722;SDS011;12042;52.136;5.584;2023-02-28T21:37:47;17.08;;;11.18;;
23722;SDS011;12042;52.136;5.584;2023-02-28T21:40:13;17.75;;;11.38;;
